Terminal Aerodrome Forecast
Issued by NWS Columbia, SC

Home | Current Version | Previous Version | Text Only | Print | Product List | Glossary On
Versions: 1 2 3 4 5 6 7 8 9 10 11 12 13 14 15 16 17 18 19 20 21 22 23 24 25 26 27 28 29 30 31 32 33 34 35 36 37
000
FTUS42 KCAE 222340
TAFCAE
TAF
KCAE 222340Z 2300/2324 05007KT P6SM SCT045 BKN060 OVC110
      TEMPO 2300/2302 5SM -SHRA BR SCT025 BKN035 OVC080
     FM230200 VRB05KT P6SM VCSH SCT015 OVC030
     FM230800 20007KT 6SM -RA BR SCT007 OVC015=

USA.gov is the U.S. government's official web portal to all federal, state and local government web resources and services.